Grójec-Słomczyn Airfield

EPGS · Mazovia, 波兰

使用的METAR站距离机场32 km。
罗盘
风向 的 风向 的 风向 到 风向 280° Grójec-Słomczyn Airfield 12/30
风: 10 kt, 3 beaufort

9 kt

4 kt
改变
0 ft 1.000 2.000 3.000 4.000 5.000
Cloud Cloud
FEW 4.400
METAR EPWA 180830Z 28010KT 230V310 9999 FEW044 24/14 Q1022 NOSIG

METAR Grójec-Słomczyn Airfield - EPGS

Grójec-Słomczyn Airfield是,波兰中的小机场。 该机场位于纬度51,87542和经度20,93514。 该机场有一条跑道: 12/30. 本场的ICAO机场代码为EPGS。 机场在Warszawa FIR中。

该航空气象观测是针对Warsaw Chopin Airport在2024年7月18日 10:30, 当地时间进行的。

机场观察

风向为280°,速度为10 kt。 风向在230°和310°之间变化。

可见度为10 km 或者更多。

有几云在4.400 ft的高度。 没有观察到天花板。

温度和风寒是24 °C。 露点为14 °C,相对湿度为54%。 海平面上的气压为1022 hPa (QNH)。

白天

今天,太阳从04:39升起,在20:45降落。 这适用于Grójec-Słomczyn Airfield,世界夏令时可能有所不同。 当地时间与世界标准时间之间的时差为+2 小时。 夏令时目前正在进行中。

公司介绍

我们没有关于这个机场的公司信息。

体会

到Vliegles.nl去找飞行课程,跳伞和其他飞行体验。 浏览页面,了解Grójec-Słomczyn Airfield附近所有可用的活动。 你也可以使用搜索功能来寻找你所在地附近的特定飞行课程、跳伞或其他飞行体验。

跑道

Id 标题 侧风 逆风 侧风 %
12/30 074°-254° 4 kt 9 kt 44 %

逆风成分最大的方向会被突出显示,并用于横风计算。 这并不一定意味着这个方向在使用。

乌云

4.400 ft FEW 几云

温度 & 天气

温度 24 °C
露点 14 °C
相对湿度 54%
Kp-index 0 (0-9)

白天

日出
04:37
中午
12:42
日落
20:46 (10:05)

小工具

你想在你的网站上有一个关于Grójec-Słomczyn Airfield的当前航空天气(METAR)的小部件吗?

显示HTML代码
报告变更